Terminal Aerodrome Forecast
Issued by NWS

Home | Current Version | Previous Version | Text Only | Print | Product List | Glossary On
Versions: 1 2 3 4 5 6 7 8 9 10 11 12 13
920
FTUS45 KTFX 251720
TAFHLN
TAF
KHLN 251720Z 2518/2618 VRB06KT P6SM FEW250
     FM260000 VRB06KT P6SM VCSH SCT050 BKN100 PROB30 2603/2608 -SHRA
      BKN050
     FM260800 24006KT P6SM FEW100 SCT250=

USA.gov is the U.S. government's official web portal to all federal, state and local government web resources and services.